createdAt,value
2018-03-26T00:02:34.918Z,81.92
2018-03-26T00:17:35.151Z,82.90
2018-03-26T00:32:35.170Z,84.17
2018-03-26T00:47:35.140Z,84.73
2018-03-26T01:02:34.670Z,84.51
2018-03-26T01:17:36.390Z,84.60
2018-03-26T01:32:34.326Z,84.25
2018-03-26T02:02:35.814Z,83.82
2018-03-26T02:17:38.071Z,85.50
2018-03-26T02:32:37.041Z,87.40
2018-03-26T02:47:37.528Z,88.14
2018-03-26T03:02:36.601Z,87.19
2018-03-26T03:17:36.028Z,86.27
2018-03-26T03:32:34.747Z,85.39
2018-03-26T04:17:34.477Z,84.07
2018-03-26T04:47:36.926Z,86.14
2018-03-26T05:02:34.958Z,86.28
2018-03-26T05:17:34.312Z,85.86
2018-03-26T05:32:34.211Z,86.12
2018-03-26T05:47:34.570Z,85.56
2018-03-26T06:02:35.063Z,83.71
2018-03-26T08:17:36.286Z,72.74
2018-03-26T08:47:35.312Z,70.38
2018-03-26T09:02:36.148Z,67.80
2018-03-26T09:17:35.050Z,67.07
2018-03-26T09:32:34.507Z,68.84
2018-03-26T09:47:34.860Z,70.41
2018-03-26T10:02:34.884Z,71.15
2018-03-26T10:17:35.727Z,71.15
2018-03-26T10:32:34.132Z,71.64
2018-03-26T10:47:34.662Z,71.23
2018-03-26T11:02:37.096Z,72.05
2018-03-26T11:17:34.457Z,74.33
2018-03-26T11:32:34.930Z,74.06
2018-03-26T11:47:34.321Z,72.87
2018-03-26T12:02:34.276Z,72.40
2018-03-26T12:17:34.668Z,71.82
2018-03-26T12:32:35.631Z,72.45
2018-03-26T12:47:36.581Z,72.05
2018-03-26T13:02:36.549Z,72.85
2018-03-26T13:17:37.391Z,72.93
2018-03-26T13:32:34.892Z,72.79
2018-03-26T13:47:34.893Z,72.87
2018-03-26T14:32:37.228Z,72.33
2018-03-26T15:02:35.141Z,70.66
2018-03-26T15:17:34.367Z,71.73
2018-03-26T15:32:34.314Z,74.30
2018-03-26T15:47:36.300Z,75.84
2018-03-26T16:02:52.342Z,77.90
2018-03-26T16:17:34.654Z,79.26
2018-03-26T16:32:36.614Z,79.44
2018-03-26T16:47:37.845Z,80.38
2018-03-26T17:17:40.104Z,81.39
2018-03-26T17:32:35.296Z,82.29
2018-03-26T17:47:41.770Z,82.62
2018-03-26T18:02:37.828Z,83.04
2018-03-26T18:17:37.130Z,83.73
2018-03-26T18:32:37.176Z,83.73
2018-03-26T18:47:37.958Z,83.79
2018-03-26T19:17:34.423Z,83.12
2018-03-26T19:32:36.973Z,82.75
2018-03-26T19:47:36.685Z,82.27
2018-03-26T20:02:44.428Z,81.55
2018-03-26T20:17:36.618Z,80.67
2018-03-26T20:32:36.556Z,80.54
2018-03-26T21:02:38.514Z,80.48
2018-03-26T21:17:36.800Z,80.25
2018-03-26T21:32:36.242Z,80.03
2018-03-26T21:47:34.761Z,80.06
2018-03-26T22:02:38.567Z,80.26
2018-03-26T22:17:37.016Z,80.39
2018-03-26T22:32:36.914Z,80.35
2018-03-26T23:02:34.900Z,80.65
2018-03-26T23:17:34.118Z,80.54
2018-03-26T23:32:37.196Z,80.00
